createdAt,value
2023-02-11T00:02:09.522Z,-0.28
2023-02-11T00:04:35.877Z,-0.21
2023-02-11T00:07:02.227Z,-0.15
2023-02-11T00:09:30.930Z,-0.13
2023-02-11T00:11:58.110Z,-0.09
2023-02-11T00:14:24.428Z,-0.13
2023-02-11T00:16:50.780Z,-0.06
2023-02-11T00:19:17.123Z,-0.06
2023-02-11T00:21:43.520Z,-0.04
2023-02-11T00:24:09.855Z,0.01
2023-02-11T00:26:36.319Z,0.00
2023-02-11T00:29:04.405Z,0.01
2023-02-11T00:31:30.920Z,0.06
2023-02-11T00:33:57.320Z,0.10
2023-02-11T00:36:27.404Z,0.13
2023-02-11T00:38:55.631Z,0.21
2023-02-11T00:41:22.701Z,0.23
2023-02-11T00:43:49.624Z,0.29
2023-02-11T00:46:16.479Z,0.26
2023-02-11T00:48:43.454Z,0.29
2023-02-11T00:51:10.229Z,0.32
2023-02-11T00:53:37.173Z,0.38
2023-02-11T00:56:04.188Z,0.40
2023-02-11T00:58:30.583Z,0.41
2023-02-11T01:00:57.106Z,0.46
2023-02-11T01:03:27.715Z,0.47
2023-02-11T01:09:40.919Z,0.59
2023-02-11T01:12:07.290Z,0.59
2023-02-11T01:14:33.674Z,0.64
2023-02-11T01:17:00.032Z,0.63
2023-02-11T01:19:26.410Z,0.61
2023-02-11T01:21:52.735Z,0.64
2023-02-11T01:24:19.082Z,0.69
2023-02-11T01:26:45.380Z,0.67
2023-02-11T01:29:11.705Z,0.64
2023-02-11T01:31:38.160Z,0.63
2023-02-11T01:34:04.557Z,0.63
2023-02-11T01:36:30.840Z,0.62
2023-02-11T01:38:57.188Z,0.64
2023-02-11T01:41:23.541Z,0.63
2023-02-11T01:43:50.249Z,0.68
2023-02-11T01:46:37.101Z,0.67
2023-02-11T01:49:07.513Z,0.64
2023-02-11T01:51:41.557Z,0.67
2023-02-11T01:54:29.868Z,0.71
2023-02-11T01:57:17.329Z,0.65
2023-02-11T01:59:57.782Z,0.61
2023-02-11T02:02:43.212Z,0.65
2023-02-11T02:05:51.503Z,0.64
2023-02-11T02:08:34.920Z,0.68
2023-02-11T02:11:01.407Z,0.70
2023-02-11T02:13:29.818Z,0.71
2023-02-11T02:15:59.233Z,0.72
2023-02-11T02:18:48.688Z,0.75
2023-02-11T02:21:45.874Z,0.77
2023-02-11T02:24:39.019Z,0.74
2023-02-11T02:27:14.638Z,0.76
2023-02-11T02:29:52.701Z,0.76
2023-02-11T02:32:54.439Z,0.73
2023-02-11T02:35:46.698Z,0.75
2023-02-11T02:38:23.204Z,0.78
2023-02-11T02:40:55.518Z,0.75
2023-02-11T02:43:23.594Z,0.78
2023-02-11T02:45:50.223Z,0.80
2023-02-11T02:48:25.713Z,0.80
2023-02-11T02:51:03.589Z,0.81
2023-02-11T02:54:08.424Z,0.83
2023-02-11T02:56:56.105Z,0.85
2023-02-11T02:59:25.182Z,0.82
2023-02-11T03:02:03.890Z,0.88
2023-02-11T03:04:42.158Z,0.80
2023-02-11T03:07:23.267Z,0.71
2023-02-11T03:09:58.380Z,0.68
2023-02-11T03:12:28.051Z,0.70
2023-02-11T03:14:54.544Z,0.71
2023-02-11T03:17:21.902Z,0.72
2023-02-11T03:19:50.940Z,0.73
2023-02-11T03:22:21.900Z,0.73
2023-02-11T03:24:48.864Z,0.70
2023-02-11T03:27:27.398Z,0.73
2023-02-11T03:30:11.245Z,0.72
2023-02-11T03:33:00.200Z,0.71
2023-02-11T03:35:35.948Z,0.67
2023-02-11T03:38:07.589Z,0.61
2023-02-11T03:40:39.959Z,0.66
2023-02-11T03:43:17.218Z,0.71
2023-02-11T03:45:45.922Z,0.70
2023-02-11T03:48:25.390Z,0.69
2023-02-11T03:50:53.981Z,0.67
2023-02-11T03:53:22.714Z,0.69
2023-02-11T03:55:52.344Z,0.64
2023-02-11T03:58:19.185Z,0.66
2023-02-11T04:00:45.640Z,0.59
2023-02-11T04:03:12.900Z,0.61
2023-02-11T04:05:39.922Z,0.57
2023-02-11T04:08:06.518Z,0.54
2023-02-11T04:10:33.113Z,0.57
2023-02-11T04:12:59.450Z,0.57
2023-02-11T04:15:25.793Z,0.54
2023-02-11T04:17:52.102Z,0.50
2023-02-11T04:20:18.450Z,0.58
2023-02-11T04:22:44.763Z,0.52
2023-02-11T04:25:11.225Z,0.52
2023-02-11T04:27:37.691Z,0.51
2023-02-11T04:30:05.955Z,0.51
2023-02-11T04:32:32.340Z,0.48
2023-02-11T04:34:58.646Z,0.49
2023-02-11T04:37:25.094Z,0.49
2023-02-11T04:39:51.458Z,0.51
2023-02-11T04:42:17.865Z,0.53
2023-02-11T04:44:44.194Z,0.55
2023-02-11T04:47:12.573Z,0.52
2023-02-11T04:49:39.281Z,0.56
2023-02-11T04:52:05.775Z,0.57
2023-02-11T04:54:32.079Z,0.53
2023-02-11T04:56:58.426Z,0.56
2023-02-11T04:59:25.085Z,0.56
2023-02-11T05:01:51.389Z,0.60
2023-02-11T05:04:17.754Z,0.60
2023-02-11T05:06:44.373Z,0.64
2023-02-11T05:09:14.154Z,0.60
2023-02-11T05:11:40.581Z,0.61
2023-02-11T05:14:07.210Z,0.66
2023-02-11T05:16:33.745Z,0.61
2023-02-11T05:19:00.567Z,0.62
2023-02-11T05:21:26.868Z,0.57
2023-02-11T05:23:53.242Z,0.59
2023-02-11T05:26:19.585Z,0.50
2023-02-11T05:28:46.013Z,0.49
2023-02-11T05:31:14.448Z,0.44
2023-02-11T05:33:41.301Z,0.39
2023-02-11T05:36:10.288Z,0.45
2023-02-11T05:38:36.967Z,0.49
2023-02-11T05:41:04.964Z,0.45
2023-02-11T05:43:31.387Z,0.44
2023-02-11T05:45:57.830Z,0.46
2023-02-11T05:48:24.197Z,0.45
2023-02-11T05:50:50.495Z,0.44
2023-02-11T05:53:16.817Z,0.47
2023-02-11T05:55:43.454Z,0.51
2023-02-11T05:58:10.109Z,0.49
2023-02-11T06:00:36.858Z,0.48
2023-02-11T06:03:04.438Z,0.45
2023-02-11T06:05:31.477Z,0.50
2023-02-11T06:07:57.949Z,0.49
2023-02-11T06:10:24.316Z,0.48
2023-02-11T06:12:50.651Z,0.54
2023-02-11T06:15:16.941Z,0.50
2023-02-11T06:17:43.254Z,0.52
2023-02-11T06:20:10.462Z,0.51
2023-02-11T06:22:36.868Z,0.54
2023-02-11T06:25:03.710Z,0.55
2023-02-11T06:27:30.084Z,0.63
2023-02-11T06:29:56.511Z,0.62
2023-02-11T06:32:42.771Z,0.64
2023-02-11T06:35:11.764Z,0.61
2023-02-11T06:37:38.530Z,0.65
2023-02-11T06:40:05.278Z,0.63
2023-02-11T06:42:31.582Z,0.67
2023-02-11T06:44:57.884Z,0.62
2023-02-11T06:47:24.193Z,0.59
2023-02-11T06:49:50.527Z,0.61
2023-02-11T06:52:16.844Z,0.60
2023-02-11T06:54:43.154Z,0.59
2023-02-11T06:57:09.469Z,0.55
2023-02-11T06:59:35.874Z,0.59
2023-02-11T07:02:02.217Z,0.60
2023-02-11T07:04:28.597Z,0.64
2023-02-11T07:06:54.926Z,0.67
2023-02-11T07:09:21.320Z,0.64
2023-02-11T07:11:47.690Z,0.63
2023-02-11T07:14:14.206Z,0.66
2023-02-11T07:16:40.581Z,0.68
2023-02-11T07:19:06.954Z,0.64
2023-02-11T07:21:33.393Z,0.67
2023-02-11T07:23:59.818Z,0.72
2023-02-11T07:26:26.262Z,0.70
2023-02-11T07:28:53.303Z,0.71
2023-02-11T07:31:25.603Z,0.69
2023-02-11T07:33:55.040Z,0.69
2023-02-11T07:36:24.100Z,0.77
2023-02-11T07:38:50.504Z,0.76
2023-02-11T07:41:19.383Z,0.80
2023-02-11T07:43:46.043Z,0.90
2023-02-11T07:46:19.749Z,0.93
2023-02-11T07:48:46.294Z,0.95
2023-02-11T07:51:25.019Z,1.03
2023-02-11T07:53:52.266Z,1.09
2023-02-11T07:56:20.316Z,1.13
2023-02-11T07:58:46.758Z,1.16
2023-02-11T08:01:17.128Z,1.19
2023-02-11T08:03:44.211Z,1.23
2023-02-11T08:06:14.349Z,1.34
2023-02-11T08:08:41.299Z,1.35
2023-02-11T08:11:09.660Z,1.41
2023-02-11T08:13:36.754Z,1.47
2023-02-11T08:16:03.920Z,1.44
2023-02-11T08:18:31.103Z,1.51
2023-02-11T08:21:03.187Z,1.55
2023-02-11T08:23:29.483Z,1.61
2023-02-11T08:25:55.799Z,1.67
2023-02-11T08:28:22.141Z,1.71
2023-02-11T08:30:48.647Z,1.76
2023-02-11T08:33:15.127Z,1.73
2023-02-11T08:35:41.467Z,1.74
2023-02-11T08:38:08.807Z,1.77
2023-02-11T08:40:35.181Z,1.87
2023-02-11T08:43:01.546Z,1.86
2023-02-11T08:45:28.115Z,1.89
2023-02-11T08:47:54.541Z,1.95
2023-02-11T08:50:20.857Z,2.06
2023-02-11T08:52:47.147Z,2.07
2023-02-11T08:55:13.434Z,2.22
2023-02-11T08:57:39.729Z,2.30
2023-02-11T09:00:06.678Z,2.36
2023-02-11T09:02:33.125Z,2.39
2023-02-11T09:04:59.449Z,2.40
2023-02-11T09:07:25.818Z,2.50
2023-02-11T09:09:52.181Z,2.67
2023-02-11T09:12:18.469Z,2.80
2023-02-11T09:14:44.808Z,2.95
2023-02-11T09:17:11.165Z,3.03
2023-02-11T09:19:37.631Z,3.09
2023-02-11T09:22:03.962Z,3.22
2023-02-11T09:24:30.425Z,3.34
2023-02-11T09:26:56.727Z,3.39
2023-02-11T09:29:23.495Z,3.58
2023-02-11T09:31:50.300Z,3.73
2023-02-11T09:34:16.927Z,3.93
2023-02-11T09:36:43.253Z,3.87
2023-02-11T09:39:14.012Z,3.89
2023-02-11T09:41:59.085Z,4.08
2023-02-11T09:44:29.308Z,4.18
2023-02-11T09:47:02.655Z,4.22
2023-02-11T09:49:42.088Z,4.22
2023-02-11T09:52:21.006Z,4.24
2023-02-11T09:55:02.596Z,4.38
2023-02-11T09:57:33.828Z,4.50
2023-02-11T10:00:01.358Z,4.67
2023-02-11T10:02:56.286Z,4.67
2023-02-11T10:05:53.017Z,4.63
2023-02-11T10:08:26.988Z,4.71
2023-02-11T10:11:00.513Z,4.82
2023-02-11T10:13:45.937Z,4.86
2023-02-11T10:16:40.539Z,4.93
2023-02-11T10:19:41.241Z,4.97
2023-02-11T10:22:27.086Z,5.06
2023-02-11T10:24:59.767Z,5.13
2023-02-11T10:27:35.592Z,5.25
2023-02-11T10:30:20.785Z,5.34
2023-02-11T10:33:00.662Z,5.40
2023-02-11T10:35:27.203Z,5.47
2023-02-11T10:37:55.691Z,5.48
2023-02-11T10:40:25.048Z,5.54
2023-02-11T10:42:55.787Z,5.61
2023-02-11T10:45:28.208Z,5.72
2023-02-11T10:47:55.339Z,5.59
2023-02-11T10:50:27.738Z,5.66
2023-02-11T10:53:11.776Z,5.68
2023-02-11T10:55:38.450Z,5.70
2023-02-11T10:58:05.709Z,5.87
2023-02-11T11:00:39.027Z,5.88
2023-02-11T11:03:16.889Z,5.85
2023-02-11T11:05:52.640Z,5.95
2023-02-11T11:08:19.458Z,5.86
2023-02-11T11:11:04.362Z,5.96
2023-02-11T11:13:34.425Z,6.08
2023-02-11T12:23:36.296Z,6.59
2023-02-11T12:26:32.156Z,6.61
2023-02-11T12:29:16.978Z,6.63
2023-02-11T12:32:03.167Z,6.73
2023-02-11T12:34:36.722Z,6.79
2023-02-11T12:37:17.044Z,6.79
2023-02-11T12:40:07.986Z,6.83
2023-02-11T12:43:17.413Z,6.94
2023-02-11T12:46:32.143Z,7.00
2023-02-11T12:49:30.142Z,7.03
2023-02-11T12:52:25.065Z,6.95
2023-02-11T12:55:02.144Z,7.02
2023-02-11T12:57:32.587Z,7.10
2023-02-11T13:00:06.798Z,7.08
2023-02-11T13:02:51.246Z,7.18
2023-02-11T13:05:29.827Z,7.14
2023-02-11T13:08:29.306Z,7.19
2023-02-11T13:10:59.779Z,7.19
2023-02-11T14:00:58.436Z,7.30
2023-02-11T14:03:46.996Z,7.42
2023-02-11T14:06:39.050Z,7.41
2023-02-11T14:09:08.767Z,7.26
2023-02-11T14:11:41.590Z,7.34
2023-02-11T14:14:27.414Z,7.46
2023-02-11T14:17:00.005Z,7.46
2023-02-11T14:19:41.034Z,7.25
2023-02-11T14:22:10.079Z,7.18
2023-02-11T14:24:36.429Z,7.13
2023-02-11T14:27:13.098Z,7.14
2023-02-11T14:30:02.706Z,7.13
2023-02-11T14:32:51.819Z,7.08
2023-02-11T14:35:40.040Z,7.04
2023-02-11T14:38:25.282Z,7.00
2023-02-11T14:41:06.272Z,6.99
2023-02-11T14:43:43.391Z,7.00
2023-02-11T14:46:10.019Z,6.99
2023-02-11T14:48:39.061Z,7.00
2023-02-11T14:51:20.411Z,6.94
2023-02-11T14:53:49.001Z,6.90
2023-02-11T14:56:26.248Z,6.87
2023-02-11T14:58:54.445Z,6.87
2023-02-11T15:01:32.405Z,6.90
2023-02-11T15:04:00.516Z,6.88
2023-02-11T15:06:31.894Z,6.88
2023-02-11T15:09:05.941Z,6.89
2023-02-11T15:11:39.662Z,6.90
2023-02-11T15:14:15.802Z,6.91
2023-02-11T15:16:45.403Z,6.93
2023-02-11T15:19:25.802Z,6.96
2023-02-11T15:21:52.952Z,6.88
2023-02-11T15:24:29.490Z,6.83
2023-02-11T15:27:03.332Z,6.80
2023-02-11T15:29:38.829Z,6.73
2023-02-11T15:32:07.014Z,6.77
2023-02-11T15:34:33.788Z,6.72
2023-02-11T15:37:00.209Z,6.65
2023-02-11T15:39:41.055Z,6.62
2023-02-11T15:42:35.841Z,6.64
2023-02-11T15:45:16.020Z,6.54
2023-02-11T15:47:49.099Z,6.54
2023-02-11T15:50:25.361Z,6.41
2023-02-11T15:52:53.280Z,6.57
2023-02-11T15:55:20.245Z,6.46
2023-02-11T15:57:52.325Z,6.42
2023-02-11T16:00:21.444Z,6.41
2023-02-11T16:02:50.678Z,6.36
2023-02-11T16:05:35.119Z,6.37
2023-02-11T16:08:19.837Z,6.33
2023-02-11T16:11:08.657Z,6.28
2023-02-11T16:13:47.376Z,6.31
2023-02-11T16:16:24.269Z,6.26
2023-02-11T16:19:04.228Z,6.22
2023-02-11T16:21:36.128Z,6.21
2023-02-11T16:24:03.796Z,6.17
2023-02-11T16:26:41.097Z,6.17
2023-02-11T16:29:10.370Z,6.12
2023-02-11T16:31:39.433Z,6.06
2023-02-11T16:34:15.312Z,6.03
2023-02-11T16:36:42.189Z,6.03
2023-02-11T16:39:08.896Z,6.10
2023-02-11T16:41:35.321Z,6.03
2023-02-11T16:44:01.665Z,6.03
2023-02-11T16:46:28.160Z,6.00
2023-02-11T16:48:56.257Z,6.01
2023-02-11T16:51:22.593Z,5.99
2023-02-11T16:53:48.978Z,6.01
2023-02-11T16:56:17.499Z,5.96
2023-02-11T16:58:44.975Z,5.97
2023-02-11T17:01:13.961Z,5.98
2023-02-11T17:03:40.695Z,5.97
2023-02-11T17:06:10.657Z,5.97
2023-02-11T17:08:37.113Z,5.95
2023-02-11T17:11:03.587Z,5.88
2023-02-11T17:13:30.050Z,5.85
2023-02-11T17:15:56.526Z,5.80
2023-02-11T17:18:22.934Z,5.80
2023-02-11T17:20:49.465Z,5.80
2023-02-11T17:23:15.973Z,5.79
2023-02-11T17:25:42.281Z,5.81
2023-02-11T17:28:09.083Z,5.80
2023-02-11T17:30:35.590Z,5.81
2023-02-11T17:33:01.938Z,5.80
2023-02-11T17:35:28.287Z,5.83
2023-02-11T17:37:54.816Z,5.86
2023-02-11T17:40:21.303Z,5.79
2023-02-11T17:42:47.591Z,5.77
2023-02-11T17:45:14.105Z,5.75
2023-02-11T17:47:40.460Z,5.73
2023-02-11T17:50:07.917Z,5.71
2023-02-11T17:52:34.547Z,5.70
2023-02-11T17:55:00.894Z,5.69
2023-02-11T17:57:27.495Z,5.70
2023-02-11T17:59:53.899Z,5.73
2023-02-11T18:02:20.572Z,5.75
2023-02-11T18:04:47.038Z,5.76
2023-02-11T18:07:14.360Z,5.79
2023-02-11T18:09:41.286Z,5.79
2023-02-11T18:12:08.965Z,5.78
2023-02-11T18:14:35.318Z,5.74
2023-02-11T18:17:01.721Z,5.72
2023-02-11T18:19:30.547Z,5.72
2023-02-11T18:22:00.540Z,5.72
2023-02-11T18:24:27.409Z,5.69
2023-02-11T18:26:53.811Z,5.70
2023-02-11T18:29:20.212Z,5.63
2023-02-11T18:31:46.619Z,5.64
2023-02-11T18:34:13.172Z,5.62
2023-02-11T18:36:39.584Z,5.65
2023-02-11T18:39:06.363Z,5.64
2023-02-11T18:41:32.909Z,5.63
2023-02-11T18:44:02.559Z,5.63
2023-02-11T18:46:29.492Z,5.57
2023-02-11T18:48:56.376Z,5.62
2023-02-11T18:51:23.180Z,5.60
2023-02-11T18:53:49.572Z,5.58
2023-02-11T18:56:20.125Z,5.55
2023-02-11T18:58:47.105Z,5.57
2023-02-11T19:01:20.786Z,5.61
2023-02-11T19:03:48.142Z,5.57
2023-02-11T19:06:25.285Z,5.63
2023-02-11T19:08:52.650Z,5.61
2023-02-11T19:11:19.795Z,5.63
2023-02-11T19:13:47.787Z,5.66
2023-02-11T19:16:16.688Z,5.66
2023-02-11T19:18:43.106Z,5.62
2023-02-11T19:21:10.865Z,5.59
2023-02-11T19:23:38.169Z,5.59
2023-02-11T19:26:06.159Z,5.56
2023-02-11T19:28:32.995Z,5.52
2023-02-11T19:31:06.146Z,5.49
2023-02-11T19:33:32.722Z,5.44
2023-02-11T19:36:04.998Z,5.45
2023-02-11T19:38:31.327Z,5.44
2023-02-11T19:40:58.223Z,5.43
2023-02-11T19:43:25.679Z,5.42
2023-02-11T19:45:55.648Z,5.38
2023-02-11T19:48:23.180Z,5.36
2023-02-11T19:50:49.830Z,5.35
2023-02-11T19:53:16.226Z,5.33
2023-02-11T19:55:42.568Z,5.33
2023-02-11T19:58:08.906Z,5.33
2023-02-11T20:00:35.249Z,5.34
2023-02-11T20:03:01.658Z,5.40
2023-02-11T20:05:28.061Z,5.36
2023-02-11T20:07:54.343Z,5.31
2023-02-11T20:10:20.625Z,5.35
2023-02-11T20:12:46.937Z,5.32
2023-02-11T20:15:13.304Z,5.29
2023-02-11T20:17:39.620Z,5.30
2023-02-11T20:20:06.482Z,5.31
2023-02-11T20:22:32.803Z,5.24
2023-02-11T20:24:59.158Z,5.21
2023-02-11T20:27:28.873Z,5.16
2023-02-11T20:29:55.527Z,5.09
2023-02-11T20:32:22.194Z,5.07
2023-02-11T20:34:48.578Z,5.05
2023-02-11T20:37:14.930Z,5.00
2023-02-11T20:39:44.492Z,4.95
2023-02-11T20:42:11.935Z,4.89
2023-02-11T20:44:38.859Z,4.85
2023-02-11T20:47:05.327Z,4.81
2023-02-11T20:49:31.789Z,4.79
2023-02-11T20:51:58.404Z,4.77
2023-02-11T20:54:25.713Z,4.78
2023-02-11T20:56:53.781Z,4.72
2023-02-11T20:59:20.981Z,4.68
2023-02-11T21:01:49.888Z,4.70
2023-02-11T21:04:20.134Z,4.65
2023-02-11T21:06:49.665Z,4.61
2023-02-11T21:09:21.674Z,4.64
2023-02-11T21:11:49.254Z,4.65
2023-02-11T21:14:15.606Z,4.62
2023-02-11T21:16:42.152Z,4.60
2023-02-11T21:19:08.453Z,4.53
2023-02-11T21:21:36.798Z,4.51
2023-02-11T21:24:04.129Z,4.44
2023-02-11T21:26:30.423Z,4.40
2023-02-11T21:28:56.816Z,4.37
2023-02-11T21:31:29.164Z,4.32
2023-02-11T21:33:56.047Z,4.30
2023-02-11T21:36:23.872Z,4.27
2023-02-11T21:38:50.431Z,4.22
2023-02-11T21:41:17.846Z,4.21
2023-02-11T21:43:44.211Z,4.20
2023-02-11T21:46:13.362Z,4.12
2023-02-11T21:48:39.777Z,4.00
2023-02-11T21:51:09.296Z,3.95
2023-02-11T21:53:35.628Z,3.91
2023-02-11T21:56:08.161Z,3.85
2023-02-11T21:58:35.356Z,3.85
2023-02-11T22:01:01.861Z,3.81
2023-02-11T22:03:28.216Z,3.77
2023-02-11T22:05:54.726Z,3.74
2023-02-11T22:08:21.240Z,3.67
2023-02-11T22:10:47.520Z,3.66
2023-02-11T22:13:13.849Z,3.67
2023-02-11T22:15:40.195Z,3.66
2023-02-11T22:18:06.505Z,3.66
2023-02-11T22:20:32.898Z,3.67
2023-02-11T22:22:59.222Z,3.67
2023-02-11T22:25:25.548Z,3.71
2023-02-11T22:27:51.894Z,3.71
2023-02-11T22:30:18.992Z,3.76
2023-02-11T22:32:45.375Z,3.77
2023-02-11T22:35:11.660Z,3.80
2023-02-11T22:37:38.111Z,3.81
2023-02-11T22:40:04.896Z,3.82
2023-02-11T22:42:31.237Z,3.85
2023-02-11T22:44:57.612Z,3.86
2023-02-11T22:47:23.954Z,3.86
2023-02-11T22:49:50.263Z,3.88
2023-02-11T22:52:16.669Z,3.88
2023-02-11T22:54:42.997Z,3.90
2023-02-11T22:57:09.281Z,3.95
2023-02-11T22:59:35.592Z,3.93
2023-02-11T23:02:02.070Z,3.90
2023-02-11T23:04:28.534Z,3.93
2023-02-11T23:06:54.849Z,3.95
2023-02-11T23:09:21.182Z,3.99
2023-02-11T23:11:49.272Z,3.98
2023-02-11T23:14:15.554Z,3.96
2023-02-11T23:16:41.975Z,3.96
2023-02-11T23:19:08.986Z,3.94
2023-02-11T23:21:38.001Z,3.93
2023-02-11T23:24:08.365Z,3.88
2023-02-11T23:26:35.080Z,3.87
2023-02-11T23:29:01.748Z,3.85
2023-02-11T23:31:33.881Z,3.86
2023-02-11T23:34:01.362Z,3.86
2023-02-11T23:36:27.704Z,3.86
2023-02-11T23:38:54.264Z,3.93
2023-02-11T23:41:21.034Z,3.86
2023-02-11T23:43:54.268Z,3.85
2023-02-11T23:46:24.394Z,3.84
2023-02-11T23:48:51.850Z,3.91
2023-02-11T23:51:19.050Z,3.90
2023-02-11T23:53:46.131Z,3.84
2023-02-11T23:56:18.492Z,3.89
2023-02-11T23:58:48.115Z,3.91
